sensor_id;sensor_type;location;lat;lon;timestamp;P1;durP1;ratioP1;P2;durP2;ratioP2
43118;SDS011;28729;49.838;8.650;2024-01-25T00:03:02;15.63;;;3.47;;
43118;SDS011;28729;49.838;8.650;2024-01-25T00:07:07;13.50;;;2.93;;
43118;SDS011;28729;49.838;8.650;2024-01-25T00:11:09;16.05;;;3.40;;
43118;SDS011;28729;49.838;8.650;2024-01-25T00:15:12;17.63;;;2.50;;
43118;SDS011;28729;49.838;8.650;2024-01-25T00:19:14;16.67;;;2.85;;
43118;SDS011;28729;49.838;8.650;2024-01-25T00:23:16;16.20;;;3.50;;
43118;SDS011;28729;49.838;8.650;2024-01-25T00:27:18;14.90;;;2.88;;
43118;SDS011;28729;49.838;8.650;2024-01-25T00:31:20;18.48;;;3.60;;
43118;SDS011;28729;49.838;8.650;2024-01-25T00:35:22;20.15;;;3.42;;
43118;SDS011;28729;49.838;8.650;2024-01-25T00:39:25;20.85;;;3.05;;
43118;SDS011;28729;49.838;8.650;2024-01-25T00:43:27;12.47;;;2.50;;
43118;SDS011;28729;49.838;8.650;2024-01-25T00:47:29;14.27;;;3.10;;
43118;SDS011;28729;49.838;8.650;2024-01-25T00:51:31;14.30;;;2.50;;
43118;SDS011;28729;49.838;8.650;2024-01-25T00:55:33;16.63;;;2.97;;
43118;SDS011;28729;49.838;8.650;2024-01-25T00:59:36;18.23;;;3.57;;
43118;SDS011;28729;49.838;8.650;2024-01-25T01:03:37;21.93;;;3.57;;
43118;SDS011;28729;49.838;8.650;2024-01-25T01:07:40;15.47;;;3.50;;
43118;SDS011;28729;49.838;8.650;2024-01-25T01:11:46;17.13;;;3.17;;
43118;SDS011;28729;49.838;8.650;2024-01-25T01:15:48;17.52;;;3.30;;
43118;SDS011;28729;49.838;8.650;2024-01-25T01:19:51;17.70;;;3.33;;
43118;SDS011;28729;49.838;8.650;2024-01-25T01:23:53;18.43;;;3.07;;
43118;SDS011;28729;49.838;8.650;2024-01-25T01:27:54;14.65;;;2.67;;
43118;SDS011;28729;49.838;8.650;2024-01-25T01:31:57;21.25;;;3.30;;
43118;SDS011;28729;49.838;8.650;2024-01-25T01:35:59;10.07;;;1.92;;
43118;SDS011;28729;49.838;8.650;2024-01-25T01:40:01;16.25;;;3.47;;
43118;SDS011;28729;49.838;8.650;2024-01-25T01:44:03;14.80;;;3.42;;
43118;SDS011;28729;49.838;8.650;2024-01-25T01:48:05;15.50;;;3.27;;
43118;SDS011;28729;49.838;8.650;2024-01-25T01:52:08;22.33;;;4.15;;
43118;SDS011;28729;49.838;8.650;2024-01-25T02:00:14;25.85;;;3.42;;
43118;SDS011;28729;49.838;8.650;2024-01-25T02:04:18;20.77;;;3.72;;
43118;SDS011;28729;49.838;8.650;2024-01-25T02:08:19;23.30;;;3.80;;
43118;SDS011;28729;49.838;8.650;2024-01-25T02:12:21;15.07;;;3.90;;
43118;SDS011;28729;49.838;8.650;2024-01-25T02:16:23;13.33;;;3.17;;
43118;SDS011;28729;49.838;8.650;2024-01-25T02:20:25;20.53;;;3.80;;
43118;SDS011;28729;49.838;8.650;2024-01-25T02:24:27;16.20;;;3.10;;
43118;SDS011;28729;49.838;8.650;2024-01-25T02:28:29;14.88;;;2.67;;
43118;SDS011;28729;49.838;8.650;2024-01-25T02:32:31;20.10;;;2.90;;
43118;SDS011;28729;49.838;8.650;2024-01-25T02:36:33;16.13;;;3.00;;
43118;SDS011;28729;49.838;8.650;2024-01-25T02:40:35;17.52;;;2.78;;
43118;SDS011;28729;49.838;8.650;2024-01-25T02:44:37;15.40;;;3.70;;
43118;SDS011;28729;49.838;8.650;2024-01-25T02:48:39;18.88;;;2.63;;
43118;SDS011;28729;49.838;8.650;2024-01-25T02:52:41;19.77;;;2.90;;
43118;SDS011;28729;49.838;8.650;2024-01-25T02:56:43;12.27;;;3.23;;
43118;SDS011;28729;49.838;8.650;2024-01-25T03:00:44;24.17;;;3.67;;
43118;SDS011;28729;49.838;8.650;2024-01-25T03:04:47;18.75;;;2.95;;
43118;SDS011;28729;49.838;8.650;2024-01-25T03:08:50;19.65;;;3.90;;
43118;SDS011;28729;49.838;8.650;2024-01-25T03:16:54;24.00;;;4.18;;
43118;SDS011;28729;49.838;8.650;2024-01-25T03:20:57;15.87;;;2.83;;
43118;SDS011;28729;49.838;8.650;2024-01-25T03:24:58;19.27;;;3.55;;
43118;SDS011;28729;49.838;8.650;2024-01-25T03:29:00;18.00;;;3.50;;
43118;SDS011;28729;49.838;8.650;2024-01-25T03:33:02;9.63;;;3.15;;
43118;SDS011;28729;49.838;8.650;2024-01-25T03:37:04;15.70;;;3.85;;
43118;SDS011;28729;49.838;8.650;2024-01-25T03:41:07;16.52;;;3.15;;
43118;SDS011;28729;49.838;8.650;2024-01-25T03:45:10;11.75;;;3.35;;
43118;SDS011;28729;49.838;8.650;2024-01-25T03:49:13;12.95;;;3.55;;
43118;SDS011;28729;49.838;8.650;2024-01-25T03:53:16;16.42;;;4.22;;
43118;SDS011;28729;49.838;8.650;2024-01-25T03:57:18;17.17;;;3.85;;
43118;SDS011;28729;49.838;8.650;2024-01-25T04:01:20;17.90;;;3.13;;
43118;SDS011;28729;49.838;8.650;2024-01-25T04:05:23;13.25;;;3.05;;
43118;SDS011;28729;49.838;8.650;2024-01-25T04:09:25;14.80;;;2.43;;
43118;SDS011;28729;49.838;8.650;2024-01-25T04:13:27;14.77;;;3.15;;
43118;SDS011;28729;49.838;8.650;2024-01-25T04:17:29;18.97;;;2.90;;
43118;SDS011;28729;49.838;8.650;2024-01-25T04:21:31;21.45;;;3.22;;
43118;SDS011;28729;49.838;8.650;2024-01-25T04:25:33;15.90;;;3.60;;
43118;SDS011;28729;49.838;8.650;2024-01-25T04:29:39;25.40;;;4.28;;
43118;SDS011;28729;49.838;8.650;2024-01-25T04:33:41;27.50;;;3.92;;
43118;SDS011;28729;49.838;8.650;2024-01-25T04:37:48;16.23;;;4.10;;
43118;SDS011;28729;49.838;8.650;2024-01-25T04:41:51;20.45;;;3.53;;
43118;SDS011;28729;49.838;8.650;2024-01-25T04:45:52;18.00;;;3.35;;
43118;SDS011;28729;49.838;8.650;2024-01-25T04:49:54;14.93;;;3.53;;
43118;SDS011;28729;49.838;8.650;2024-01-25T04:53:56;17.05;;;3.45;;
43118;SDS011;28729;49.838;8.650;2024-01-25T04:57:58;18.65;;;3.10;;
43118;SDS011;28729;49.838;8.650;2024-01-25T05:02:00;17.95;;;3.47;;
43118;SDS011;28729;49.838;8.650;2024-01-25T05:06:02;18.88;;;3.03;;
43118;SDS011;28729;49.838;8.650;2024-01-25T05:10:04;23.43;;;3.47;;
43118;SDS011;28729;49.838;8.650;2024-01-25T05:14:06;15.52;;;2.85;;
43118;SDS011;28729;49.838;8.650;2024-01-25T05:18:09;22.73;;;3.58;;
43118;SDS011;28729;49.838;8.650;2024-01-25T05:22:11;10.83;;;2.27;;
43118;SDS011;28729;49.838;8.650;2024-01-25T05:26:13;13.43;;;2.97;;
43118;SDS011;28729;49.838;8.650;2024-01-25T05:34:19;23.63;;;2.60;;
43118;SDS011;28729;49.838;8.650;2024-01-25T05:38:21;20.03;;;3.50;;
43118;SDS011;28729;49.838;8.650;2024-01-25T05:42:23;9.50;;;2.47;;
43118;SDS011;28729;49.838;8.650;2024-01-25T05:46:25;15.98;;;3.42;;
43118;SDS011;28729;49.838;8.650;2024-01-25T05:50:27;18.27;;;3.43;;
43118;SDS011;28729;49.838;8.650;2024-01-25T05:54:29;18.20;;;3.63;;
43118;SDS011;28729;49.838;8.650;2024-01-25T05:58:31;22.73;;;4.07;;
43118;SDS011;28729;49.838;8.650;2024-01-25T06:02:33;20.03;;;4.27;;
43118;SDS011;28729;49.838;8.650;2024-01-25T06:06:34;14.82;;;3.05;;
43118;SDS011;28729;49.838;8.650;2024-01-25T06:10:36;14.63;;;2.60;;
43118;SDS011;28729;49.838;8.650;2024-01-25T06:14:39;14.23;;;3.42;;
43118;SDS011;28729;49.838;8.650;2024-01-25T06:18:41;15.02;;;2.40;;
43118;SDS011;28729;49.838;8.650;2024-01-25T06:22:43;8.80;;;3.23;;
43118;SDS011;28729;49.838;8.650;2024-01-25T06:26:45;12.40;;;3.20;;
43118;SDS011;28729;49.838;8.650;2024-01-25T06:30:46;28.35;;;4.00;;
43118;SDS011;28729;49.838;8.650;2024-01-25T06:34:48;23.38;;;4.60;;
43118;SDS011;28729;49.838;8.650;2024-01-25T06:42:53;14.18;;;3.88;;
43118;SDS011;28729;49.838;8.650;2024-01-25T06:46:55;13.77;;;3.23;;
43118;SDS011;28729;49.838;8.650;2024-01-25T06:50:57;16.67;;;3.42;;
43118;SDS011;28729;49.838;8.650;2024-01-25T06:54:59;19.53;;;3.57;;
43118;SDS011;28729;49.838;8.650;2024-01-25T06:59:01;21.40;;;3.43;;
43118;SDS011;28729;49.838;8.650;2024-01-25T07:03:04;16.83;;;3.07;;
43118;SDS011;28729;49.838;8.650;2024-01-25T07:07:08;13.93;;;2.88;;
43118;SDS011;28729;49.838;8.650;2024-01-25T07:11:12;21.27;;;4.60;;
43118;SDS011;28729;49.838;8.650;2024-01-25T07:15:14;23.23;;;4.70;;
43118;SDS011;28729;49.838;8.650;2024-01-25T07:19:16;17.53;;;2.97;;
43118;SDS011;28729;49.838;8.650;2024-01-25T07:23:18;17.73;;;2.90;;
43118;SDS011;28729;49.838;8.650;2024-01-25T07:27:20;11.15;;;3.10;;
43118;SDS011;28729;49.838;8.650;2024-01-25T07:31:22;17.45;;;3.47;;
43118;SDS011;28729;49.838;8.650;2024-01-25T07:35:25;14.07;;;3.20;;
43118;SDS011;28729;49.838;8.650;2024-01-25T07:39:27;15.80;;;3.42;;
43118;SDS011;28729;49.838;8.650;2024-01-25T07:43:29;20.85;;;3.60;;
43118;SDS011;28729;49.838;8.650;2024-01-25T07:47:31;21.45;;;4.22;;
43118;SDS011;28729;49.838;8.650;2024-01-25T07:51:33;18.63;;;3.57;;
43118;SDS011;28729;49.838;8.650;2024-01-25T07:55:35;15.03;;;2.87;;
43118;SDS011;28729;49.838;8.650;2024-01-25T07:59:37;15.83;;;2.87;;
43118;SDS011;28729;49.838;8.650;2024-01-25T08:03:39;19.00;;;3.97;;
43118;SDS011;28729;49.838;8.650;2024-01-25T08:07:41;17.53;;;3.97;;
43118;SDS011;28729;49.838;8.650;2024-01-25T08:11:43;12.97;;;3.43;;
43118;SDS011;28729;49.838;8.650;2024-01-25T08:15:45;22.33;;;3.90;;
43118;SDS011;28729;49.838;8.650;2024-01-25T08:19:47;13.30;;;2.72;;
43118;SDS011;28729;49.838;8.650;2024-01-25T08:23:52;18.05;;;3.45;;
43118;SDS011;28729;49.838;8.650;2024-01-25T08:27:54;19.57;;;4.40;;
43118;SDS011;28729;49.838;8.650;2024-01-25T08:31:56;20.73;;;3.22;;
43118;SDS011;28729;49.838;8.650;2024-01-25T08:35:58;20.65;;;3.90;;
43118;SDS011;28729;49.838;8.650;2024-01-25T08:40:01;22.17;;;4.25;;
43118;SDS011;28729;49.838;8.650;2024-01-25T08:44:05;17.33;;;3.67;;
43118;SDS011;28729;49.838;8.650;2024-01-25T08:48:08;14.98;;;2.38;;
43118;SDS011;28729;49.838;8.650;2024-01-25T08:52:10;15.35;;;3.50;;
43118;SDS011;28729;49.838;8.650;2024-01-25T08:56:12;17.05;;;4.78;;
43118;SDS011;28729;49.838;8.650;2024-01-25T09:00:14;16.00;;;4.13;;
43118;SDS011;28729;49.838;8.650;2024-01-25T09:08:19;25.67;;;4.78;;
43118;SDS011;28729;49.838;8.650;2024-01-25T09:12:21;24.53;;;3.77;;
43118;SDS011;28729;49.838;8.650;2024-01-25T09:16:23;19.88;;;4.10;;
43118;SDS011;28729;49.838;8.650;2024-01-25T09:20:25;27.17;;;4.07;;
43118;SDS011;28729;49.838;8.650;2024-01-25T09:24:27;29.37;;;5.00;;
43118;SDS011;28729;49.838;8.650;2024-01-25T09:28:29;17.98;;;4.30;;
43118;SDS011;28729;49.838;8.650;2024-01-25T09:32:31;25.10;;;4.47;;
43118;SDS011;28729;49.838;8.650;2024-01-25T09:36:33;15.20;;;3.75;;
43118;SDS011;28729;49.838;8.650;2024-01-25T09:40:35;23.00;;;4.70;;
43118;SDS011;28729;49.838;8.650;2024-01-25T09:44:37;19.75;;;4.05;;
43118;SDS011;28729;49.838;8.650;2024-01-25T09:48:39;16.03;;;4.50;;
43118;SDS011;28729;49.838;8.650;2024-01-25T09:52:43;18.80;;;4.47;;
43118;SDS011;28729;49.838;8.650;2024-01-25T09:56:50;21.42;;;3.75;;
43118;SDS011;28729;49.838;8.650;2024-01-25T10:00:52;19.38;;;3.65;;
43118;SDS011;28729;49.838;8.650;2024-01-25T10:04:54;15.73;;;4.45;;
43118;SDS011;28729;49.838;8.650;2024-01-25T10:08:56;22.30;;;4.83;;
43118;SDS011;28729;49.838;8.650;2024-01-25T10:13:00;20.85;;;4.00;;
43118;SDS011;28729;49.838;8.650;2024-01-25T10:17:02;24.92;;;4.50;;
43118;SDS011;28729;49.838;8.650;2024-01-25T10:21:04;20.35;;;3.83;;
43118;SDS011;28729;49.838;8.650;2024-01-25T10:25:11;30.48;;;4.63;;
43118;SDS011;28729;49.838;8.650;2024-01-25T10:29:15;18.30;;;4.28;;
43118;SDS011;28729;49.838;8.650;2024-01-25T10:33:17;16.98;;;3.60;;
43118;SDS011;28729;49.838;8.650;2024-01-25T10:37:20;16.08;;;3.38;;
43118;SDS011;28729;49.838;8.650;2024-01-25T10:41:21;19.67;;;5.25;;
43118;SDS011;28729;49.838;8.650;2024-01-25T10:45:29;14.70;;;4.22;;
43118;SDS011;28729;49.838;8.650;2024-01-25T10:49:31;21.77;;;4.63;;
43118;SDS011;28729;49.838;8.650;2024-01-25T10:53:34;18.52;;;4.65;;
43118;SDS011;28729;49.838;8.650;2024-01-25T10:57:39;22.58;;;4.45;;
43118;SDS011;28729;49.838;8.650;2024-01-25T11:01:45;15.57;;;3.58;;
43118;SDS011;28729;49.838;8.650;2024-01-25T11:05:47;24.20;;;5.88;;
43118;SDS011;28729;49.838;8.650;2024-01-25T11:09:51;17.73;;;4.15;;
43118;SDS011;28729;49.838;8.650;2024-01-25T11:13:55;25.15;;;4.57;;
43118;SDS011;28729;49.838;8.650;2024-01-25T11:17:57;20.80;;;3.70;;
43118;SDS011;28729;49.838;8.650;2024-01-25T11:22:02;28.23;;;4.03;;
43118;SDS011;28729;49.838;8.650;2024-01-25T11:26:05;23.67;;;4.63;;
43118;SDS011;28729;49.838;8.650;2024-01-25T11:30:10;16.80;;;3.60;;
43118;SDS011;28729;49.838;8.650;2024-01-25T11:34:13;15.27;;;4.10;;
43118;SDS011;28729;49.838;8.650;2024-01-25T11:38:20;18.13;;;3.72;;
43118;SDS011;28729;49.838;8.650;2024-01-25T11:46:24;21.52;;;4.20;;
43118;SDS011;28729;49.838;8.650;2024-01-25T11:50:27;14.63;;;3.25;;
43118;SDS011;28729;49.838;8.650;2024-01-25T11:54:31;18.20;;;3.83;;
43118;SDS011;28729;49.838;8.650;2024-01-25T11:58:33;16.93;;;3.60;;
43118;SDS011;28729;49.838;8.650;2024-01-25T12:02:40;15.18;;;3.20;;
43118;SDS011;28729;49.838;8.650;2024-01-25T12:06:42;19.02;;;3.60;;
43118;SDS011;28729;49.838;8.650;2024-01-25T12:14:47;16.17;;;3.75;;
43118;SDS011;28729;49.838;8.650;2024-01-25T12:18:49;22.90;;;4.30;;
43118;SDS011;28729;49.838;8.650;2024-01-25T12:22:51;19.47;;;4.07;;
43118;SDS011;28729;49.838;8.650;2024-01-25T12:26:54;13.20;;;3.97;;
43118;SDS011;28729;49.838;8.650;2024-01-25T12:30:56;22.60;;;4.53;;
43118;SDS011;28729;49.838;8.650;2024-01-25T12:34:59;28.13;;;4.05;;
43118;SDS011;28729;49.838;8.650;2024-01-25T12:39:02;16.08;;;3.40;;
43118;SDS011;28729;49.838;8.650;2024-01-25T12:43:04;23.97;;;4.13;;
43118;SDS011;28729;49.838;8.650;2024-01-25T12:47:06;16.00;;;3.73;;
43118;SDS011;28729;49.838;8.650;2024-01-25T12:51:09;16.27;;;3.38;;
43118;SDS011;28729;49.838;8.650;2024-01-25T12:55:11;19.48;;;4.15;;
43118;SDS011;28729;49.838;8.650;2024-01-25T13:03:17;22.25;;;4.18;;
43118;SDS011;28729;49.838;8.650;2024-01-25T13:07:19;20.70;;;4.03;;
43118;SDS011;28729;49.838;8.650;2024-01-25T13:11:21;18.92;;;4.60;;
43118;SDS011;28729;49.838;8.650;2024-01-25T13:15:23;21.17;;;4.63;;
43118;SDS011;28729;49.838;8.650;2024-01-25T13:19:26;15.85;;;3.88;;
43118;SDS011;28729;49.838;8.650;2024-01-25T13:23:34;24.08;;;3.97;;
43118;SDS011;28729;49.838;8.650;2024-01-25T13:27:37;19.95;;;3.50;;
43118;SDS011;28729;49.838;8.650;2024-01-25T13:31:40;29.85;;;4.75;;
43118;SDS011;28729;49.838;8.650;2024-01-25T13:39:44;15.75;;;4.03;;
43118;SDS011;28729;49.838;8.650;2024-01-25T13:43:46;17.63;;;3.70;;
43118;SDS011;28729;49.838;8.650;2024-01-25T13:47:47;23.17;;;3.97;;
43118;SDS011;28729;49.838;8.650;2024-01-25T13:51:50;21.73;;;4.07;;
43118;SDS011;28729;49.838;8.650;2024-01-25T13:55:52;24.13;;;4.40;;
43118;SDS011;28729;49.838;8.650;2024-01-25T14:03:57;27.23;;;4.00;;
43118;SDS011;28729;49.838;8.650;2024-01-25T14:07:59;20.63;;;4.90;;
43118;SDS011;28729;49.838;8.650;2024-01-25T14:12:01;11.93;;;3.10;;
43118;SDS011;28729;49.838;8.650;2024-01-25T14:16:04;15.10;;;4.00;;
43118;SDS011;28729;49.838;8.650;2024-01-25T14:20:06;17.80;;;5.57;;
43118;SDS011;28729;49.838;8.650;2024-01-25T14:24:15;22.90;;;4.38;;
43118;SDS011;28729;49.838;8.650;2024-01-25T14:28:17;17.65;;;5.05;;
43118;SDS011;28729;49.838;8.650;2024-01-25T14:32:19;19.63;;;3.43;;
43118;SDS011;28729;49.838;8.650;2024-01-25T14:36:25;13.10;;;3.33;;
43118;SDS011;28729;49.838;8.650;2024-01-25T14:40:26;17.70;;;4.20;;
43118;SDS011;28729;49.838;8.650;2024-01-25T14:44:48;22.85;;;4.75;;
43118;SDS011;28729;49.838;8.650;2024-01-25T14:48:54;13.23;;;4.28;;
43118;SDS011;28729;49.838;8.650;2024-01-25T14:52:59;14.48;;;3.63;;
43118;SDS011;28729;49.838;8.650;2024-01-25T14:57:02;20.73;;;4.18;;
43118;SDS011;28729;49.838;8.650;2024-01-25T15:01:04;20.43;;;4.03;;
43118;SDS011;28729;49.838;8.650;2024-01-25T15:05:08;13.00;;;3.75;;
43118;SDS011;28729;49.838;8.650;2024-01-25T15:09:11;16.80;;;3.75;;
43118;SDS011;28729;49.838;8.650;2024-01-25T15:13:21;11.23;;;3.22;;
43118;SDS011;28729;49.838;8.650;2024-01-25T15:17:23;15.10;;;4.13;;
43118;SDS011;28729;49.838;8.650;2024-01-25T15:21:25;18.60;;;4.57;;
43118;SDS011;28729;49.838;8.650;2024-01-25T15:29:30;14.63;;;3.42;;
43118;SDS011;28729;49.838;8.650;2024-01-25T15:33:32;21.92;;;4.20;;
43118;SDS011;28729;49.838;8.650;2024-01-25T15:37:35;19.13;;;3.93;;
43118;SDS011;28729;49.838;8.650;2024-01-25T15:41:39;19.67;;;3.80;;
43118;SDS011;28729;49.838;8.650;2024-01-25T15:45:42;25.05;;;3.95;;
43118;SDS011;28729;49.838;8.650;2024-01-25T15:49:44;17.55;;;3.60;;
43118;SDS011;28729;49.838;8.650;2024-01-25T15:53:47;14.90;;;3.90;;
43118;SDS011;28729;49.838;8.650;2024-01-25T15:57:49;16.05;;;4.18;;
43118;SDS011;28729;49.838;8.650;2024-01-25T16:01:52;14.52;;;3.92;;
43118;SDS011;28729;49.838;8.650;2024-01-25T16:05:54;27.90;;;3.92;;
43118;SDS011;28729;49.838;8.650;2024-01-25T16:09:56;11.32;;;3.70;;
43118;SDS011;28729;49.838;8.650;2024-01-25T16:13:57;22.70;;;4.30;;
43118;SDS011;28729;49.838;8.650;2024-01-25T16:17:59;16.40;;;3.28;;
43118;SDS011;28729;49.838;8.650;2024-01-25T16:22:01;23.17;;;4.43;;
43118;SDS011;28729;49.838;8.650;2024-01-25T16:26:03;22.87;;;4.60;;
43118;SDS011;28729;49.838;8.650;2024-01-25T16:30:05;19.02;;;4.05;;
43118;SDS011;28729;49.838;8.650;2024-01-25T16:34:07;24.17;;;4.70;;
43118;SDS011;28729;49.838;8.650;2024-01-25T16:38:09;14.43;;;4.03;;
43118;SDS011;28729;49.838;8.650;2024-01-25T16:42:11;17.50;;;3.80;;
43118;SDS011;28729;49.838;8.650;2024-01-25T16:46:13;14.52;;;3.63;;
43118;SDS011;28729;49.838;8.650;2024-01-25T16:50:15;11.40;;;3.83;;
43118;SDS011;28729;49.838;8.650;2024-01-25T16:54:17;12.00;;;3.10;;
43118;SDS011;28729;49.838;8.650;2024-01-25T16:58:20;21.50;;;3.65;;
43118;SDS011;28729;49.838;8.650;2024-01-25T17:02:22;15.90;;;3.67;;
43118;SDS011;28729;49.838;8.650;2024-01-25T17:06:24;18.00;;;3.63;;
43118;SDS011;28729;49.838;8.650;2024-01-25T17:10:26;14.68;;;3.13;;
43118;SDS011;28729;49.838;8.650;2024-01-25T17:14:28;15.97;;;4.17;;
43118;SDS011;28729;49.838;8.650;2024-01-25T17:18:29;13.57;;;3.47;;
43118;SDS011;28729;49.838;8.650;2024-01-25T17:22:32;20.17;;;4.10;;
43118;SDS011;28729;49.838;8.650;2024-01-25T17:26:33;19.73;;;4.80;;
43118;SDS011;28729;49.838;8.650;2024-01-25T17:30:35;17.55;;;3.33;;
43118;SDS011;28729;49.838;8.650;2024-01-25T17:34:37;23.45;;;4.35;;
43118;SDS011;28729;49.838;8.650;2024-01-25T17:38:40;14.73;;;3.80;;
43118;SDS011;28729;49.838;8.650;2024-01-25T17:42:45;12.52;;;3.75;;
43118;SDS011;28729;49.838;8.650;2024-01-25T17:46:48;22.90;;;4.80;;
43118;SDS011;28729;49.838;8.650;2024-01-25T17:50:50;14.90;;;5.43;;
43118;SDS011;28729;49.838;8.650;2024-01-25T17:54:51;18.42;;;4.60;;
43118;SDS011;28729;49.838;8.650;2024-01-25T17:58:53;20.23;;;4.30;;
43118;SDS011;28729;49.838;8.650;2024-01-25T18:02:57;19.52;;;4.78;;
43118;SDS011;28729;49.838;8.650;2024-01-25T18:06:58;18.13;;;5.40;;
43118;SDS011;28729;49.838;8.650;2024-01-25T18:11:00;20.30;;;4.68;;
43118;SDS011;28729;49.838;8.650;2024-01-25T18:15:02;19.00;;;5.57;;
43118;SDS011;28729;49.838;8.650;2024-01-25T18:19:04;23.98;;;5.18;;
43118;SDS011;28729;49.838;8.650;2024-01-25T18:23:06;26.30;;;4.93;;
43118;SDS011;28729;49.838;8.650;2024-01-25T18:27:08;21.65;;;5.07;;
43118;SDS011;28729;49.838;8.650;2024-01-25T18:31:10;25.02;;;5.05;;
43118;SDS011;28729;49.838;8.650;2024-01-25T18:35:12;18.07;;;4.33;;
43118;SDS011;28729;49.838;8.650;2024-01-25T18:39:14;17.75;;;4.57;;
43118;SDS011;28729;49.838;8.650;2024-01-25T18:43:19;16.25;;;4.13;;
43118;SDS011;28729;49.838;8.650;2024-01-25T18:47:21;20.50;;;4.80;;
43118;SDS011;28729;49.838;8.650;2024-01-25T18:51:25;23.55;;;4.80;;
43118;SDS011;28729;49.838;8.650;2024-01-25T18:55:27;16.33;;;4.45;;
43118;SDS011;28729;49.838;8.650;2024-01-25T18:59:29;24.40;;;5.57;;
43118;SDS011;28729;49.838;8.650;2024-01-25T19:03:32;19.52;;;5.72;;
43118;SDS011;28729;49.838;8.650;2024-01-25T19:07:35;23.65;;;6.63;;
43118;SDS011;28729;49.838;8.650;2024-01-25T19:11:39;25.00;;;6.45;;
43118;SDS011;28729;49.838;8.650;2024-01-25T19:15:41;24.63;;;5.60;;
43118;SDS011;28729;49.838;8.650;2024-01-25T19:19:43;17.73;;;5.15;;
43118;SDS011;28729;49.838;8.650;2024-01-25T19:23:45;18.67;;;6.45;;
43118;SDS011;28729;49.838;8.650;2024-01-25T19:27:47;14.20;;;4.90;;
43118;SDS011;28729;49.838;8.650;2024-01-25T19:31:49;17.47;;;5.60;;
43118;SDS011;28729;49.838;8.650;2024-01-25T19:35:52;20.38;;;6.00;;
43118;SDS011;28729;49.838;8.650;2024-01-25T19:43:56;28.38;;;6.35;;
43118;SDS011;28729;49.838;8.650;2024-01-25T19:47:58;29.42;;;6.88;;
43118;SDS011;28729;49.838;8.650;2024-01-25T19:52:00;19.07;;;6.27;;
43118;SDS011;28729;49.838;8.650;2024-01-25T19:56:04;24.33;;;6.90;;
43118;SDS011;28729;49.838;8.650;2024-01-25T20:00:06;17.27;;;7.33;;
43118;SDS011;28729;49.838;8.650;2024-01-25T20:08:11;16.63;;;7.10;;
43118;SDS011;28729;49.838;8.650;2024-01-25T20:12:14;27.10;;;7.15;;
43118;SDS011;28729;49.838;8.650;2024-01-25T20:16:16;19.00;;;6.28;;
43118;SDS011;28729;49.838;8.650;2024-01-25T20:20:19;25.73;;;6.40;;
43118;SDS011;28729;49.838;8.650;2024-01-25T20:24:31;23.05;;;6.28;;
43118;SDS011;28729;49.838;8.650;2024-01-25T20:28:33;25.77;;;7.07;;
43118;SDS011;28729;49.838;8.650;2024-01-25T20:32:34;25.20;;;6.75;;
43118;SDS011;28729;49.838;8.650;2024-01-25T20:36:37;21.45;;;6.75;;
43118;SDS011;28729;49.838;8.650;2024-01-25T20:40:38;28.65;;;6.70;;
43118;SDS011;28729;49.838;8.650;2024-01-25T20:44:40;14.00;;;6.37;;
43118;SDS011;28729;49.838;8.650;2024-01-25T20:48:42;16.58;;;5.30;;
43118;SDS011;28729;49.838;8.650;2024-01-25T20:52:44;12.27;;;4.60;;
43118;SDS011;28729;49.838;8.650;2024-01-25T20:56:46;18.45;;;4.70;;
43118;SDS011;28729;49.838;8.650;2024-01-25T21:00:50;13.23;;;4.10;;
43118;SDS011;28729;49.838;8.650;2024-01-25T21:04:52;15.90;;;4.45;;
43118;SDS011;28729;49.838;8.650;2024-01-25T21:08:55;16.17;;;4.28;;
43118;SDS011;28729;49.838;8.650;2024-01-25T21:12:57;11.50;;;4.33;;
43118;SDS011;28729;49.838;8.650;2024-01-25T21:17:01;12.18;;;3.85;;
43118;SDS011;28729;49.838;8.650;2024-01-25T21:21:03;10.60;;;3.80;;
43118;SDS011;28729;49.838;8.650;2024-01-25T21:25:09;11.63;;;4.07;;
43118;SDS011;28729;49.838;8.650;2024-01-25T21:29:12;10.48;;;4.15;;
43118;SDS011;28729;49.838;8.650;2024-01-25T21:33:14;8.65;;;3.45;;
43118;SDS011;28729;49.838;8.650;2024-01-25T21:37:17;10.57;;;3.80;;
43118;SDS011;28729;49.838;8.650;2024-01-25T21:41:20;8.80;;;4.38;;
43118;SDS011;28729;49.838;8.650;2024-01-25T21:45:22;14.60;;;5.00;;
43118;SDS011;28729;49.838;8.650;2024-01-25T21:49:24;13.67;;;5.07;;
43118;SDS011;28729;49.838;8.650;2024-01-25T21:53:26;12.07;;;5.57;;
43118;SDS011;28729;49.838;8.650;2024-01-25T21:57:27;11.65;;;5.60;;
43118;SDS011;28729;49.838;8.650;2024-01-25T22:01:35;17.07;;;7.37;;
43118;SDS011;28729;49.838;8.650;2024-01-25T22:05:40;19.48;;;8.82;;
43118;SDS011;28729;49.838;8.650;2024-01-25T22:09:42;21.17;;;8.60;;
43118;SDS011;28729;49.838;8.650;2024-01-25T22:13:49;20.40;;;9.00;;
43118;SDS011;28729;49.838;8.650;2024-01-25T22:17:55;21.98;;;10.05;;
43118;SDS011;28729;49.838;8.650;2024-01-25T22:21:57;23.43;;;9.67;;
43118;SDS011;28729;49.838;8.650;2024-01-25T22:25:59;21.75;;;10.20;;
43118;SDS011;28729;49.838;8.650;2024-01-25T22:34:32;21.70;;;9.75;;
43118;SDS011;28729;49.838;8.650;2024-01-25T22:38:34;22.67;;;10.37;;
43118;SDS011;28729;49.838;8.650;2024-01-25T22:42:36;23.30;;;10.93;;
43118;SDS011;28729;49.838;8.650;2024-01-25T22:46:38;25.60;;;11.20;;
43118;SDS011;28729;49.838;8.650;2024-01-25T22:50:39;25.88;;;11.85;;
43118;SDS011;28729;49.838;8.650;2024-01-25T22:54:41;25.70;;;11.60;;
43118;SDS011;28729;49.838;8.650;2024-01-25T22:58:45;28.35;;;12.50;;
43118;SDS011;28729;49.838;8.650;2024-01-25T23:02:47;24.13;;;11.00;;
43118;SDS011;28729;49.838;8.650;2024-01-25T23:06:49;27.13;;;11.32;;
43118;SDS011;28729;49.838;8.650;2024-01-25T23:10:52;25.13;;;11.57;;
43118;SDS011;28729;49.838;8.650;2024-01-25T23:14:54;27.20;;;11.70;;
43118;SDS011;28729;49.838;8.650;2024-01-25T23:18:59;25.98;;;10.85;;
43118;SDS011;28729;49.838;8.650;2024-01-25T23:27:03;25.83;;;10.32;;
43118;SDS011;28729;49.838;8.650;2024-01-25T23:31:05;24.43;;;10.50;;
43118;SDS011;28729;49.838;8.650;2024-01-25T23:35:07;26.17;;;10.48;;
43118;SDS011;28729;49.838;8.650;2024-01-25T23:39:10;22.40;;;10.63;;
43118;SDS011;28729;49.838;8.650;2024-01-25T23:43:12;21.77;;;10.23;;
43118;SDS011;28729;49.838;8.650;2024-01-25T23:47:14;27.27;;;10.80;;
43118;SDS011;28729;49.838;8.650;2024-01-25T23:51:16;23.23;;;10.65;;
43118;SDS011;28729;49.838;8.650;2024-01-25T23:55:18;26.80;;;10.87;;
43118;SDS011;28729;49.838;8.650;2024-01-25T23:59:20;24.30;;;10.27;;
